Time;durP1;ratioP1;P1;durP2;ratioP2;P2;SDS_P1;SDS_P2;PMS_P1;PMS_P2;Temp;Humidity;BMP_temperature;BMP_pressure;BME280_temperature;BME280_humidity;BME280_pressure;Samples;Min_cycle;Max_cycle;Signal;HPM_P1;HPM_P2
2024/01/12 00:01:36;;;;;;;14.60;11.73;;;0.70;32.20;;;;;;5004349;28;20526;-56
2024/01/12 00:04:02;;;;;;;12.43;11.10;;;0.80;31.30;;;;;;5012171;28;20561;-57
2024/01/12 00:06:29;;;;;;;14.30;11.50;;;0.80;30.20;;;;;;5008854;28;20498;-57
2024/01/12 00:08:55;;;;;;;14.27;12.27;;;0.80;28.80;;;;;;5004562;28;20515;-56
2024/01/12 00:11:23;;;;;;;11.93;9.90;;;0.80;28.00;;;;;;5001917;28;20461;-56
2024/01/12 00:13:50;;;;;;;12.37;9.90;;;0.80;27.80;;;;;;5009815;28;20898;-57
2024/01/12 00:16:21;;;;;;;9.90;8.90;;;0.70;28.60;;;;;;5010090;28;20439;-56
2024/01/12 00:18:47;;;;;;;9.83;8.80;;;0.80;26.20;;;;;;5005993;28;20467;-57
2024/01/12 00:21:14;;;;;;;13.60;9.97;;;0.80;25.50;;;;;;5008772;28;20463;-57
2024/01/12 00:23:40;;;;;;;13.83;10.23;;;0.80;24.20;;;;;;5006654;28;20515;-57
2024/01/12 00:26:07;;;;;;;10.47;8.53;;;0.80;25.20;;;;;;5011334;28;20949;-56
2024/01/12 00:28:35;;;;;;;10.23;9.20;;;0.80;24.00;;;;;;5009321;28;20817;-56
2024/01/12 00:31:01;;;;;;;11.07;9.37;;;0.80;23.90;;;;;;5004554;28;20879;-57
2024/01/12 00:33:28;;;;;;;10.30;9.30;;;0.80;23.80;;;;;;5002079;28;20822;-57
2024/01/12 00:35:54;;;;;;;10.90;9.43;;;0.80;23.40;;;;;;5011048;28;20537;-56
2024/01/12 00:38:21;;;;;;;11.13;8.90;;;0.70;23.20;;;;;;5009547;28;20597;-56
2024/01/12 00:40:48;;;;;;;11.90;9.20;;;0.70;22.70;;;;;;5009161;28;20494;-57
2024/01/12 00:43:14;;;;;;;12.93;9.97;;;0.80;21.60;;;;;;5010757;28;20541;-57
2024/01/12 00:45:42;;;;;;;13.67;10.73;;;0.80;20.90;;;;;;5005888;28;20772;-57
2024/01/12 00:48:09;;;;;;;10.77;9.77;;;0.80;21.20;;;;;;5011197;28;20518;-56
2024/01/12 00:50:35;;;;;;;15.70;9.80;;;0.70;21.70;;;;;;5005350;28;20523;-56
2024/01/12 00:53:02;;;;;;;11.30;9.77;;;0.80;21.00;;;;;;5006652;28;20479;-56
2024/01/12 00:55:28;;;;;;;13.30;9.67;;;0.80;21.60;;;;;;5006454;28;20514;-56
2024/01/12 00:57:55;;;;;;;11.90;9.60;;;0.70;21.40;;;;;;5005227;28;20447;-56
2024/01/12 01:00:22;;;;;;;11.97;9.37;;;0.80;21.60;;;;;;5010347;28;20467;-56
2024/01/12 01:02:49;;;;;;;13.23;9.70;;;0.70;21.50;;;;;;5007402;28;20988;-56
2024/01/12 01:05:16;;;;;;;15.13;11.00;;;0.80;20.70;;;;;;5009212;28;20460;-56
2024/01/12 01:07:43;;;;;;;25.60;12.27;;;0.80;20.20;;;;;;5002326;28;20902;-57
2024/01/12 01:10:10;;;;;;;25.03;13.27;;;0.80;20.10;;;;;;5008995;28;20943;-56
2024/01/12 01:12:37;;;;;;;17.33;11.00;;;0.80;20.20;;;;;;4995829;28;20476;-56
2024/01/12 01:15:06;;;;;;;18.23;10.60;;;0.80;21.10;;;;;;5004351;28;20482;-57
2024/01/12 01:17:33;;;;;;;12.70;9.50;;;0.80;20.50;;;;;;5008746;28;20466;-57
2024/01/12 01:20:01;;;;;;;13.43;10.50;;;0.80;21.20;;;;;;5006026;28;20459;-56
2024/01/12 01:22:29;;;;;;;11.50;10.20;;;0.70;20.80;;;;;;5010941;28;20483;-57
2024/01/12 01:24:56;;;;;;;16.27;11.07;;;0.70;21.70;;;;;;5011620;28;20471;-56
2024/01/12 01:27:22;;;;;;;16.03;10.63;;;0.80;20.20;;;;;;5008813;28;20502;-56
2024/01/12 01:29:49;;;;;;;13.07;11.00;;;0.80;76.50;;;;;;5010199;28;20476;-56
2024/01/12 01:32:15;;;;;;;15.23;11.10;;;0.80;76.00;;;;;;5005628;28;20471;-57
2024/01/12 01:34:42;;;;;;;13.13;10.60;;;0.80;74.40;;;;;;5011665;28;20470;-56
2024/01/12 01:37:10;;;;;;;13.00;10.27;;;0.80;74.90;;;;;;5009965;28;20531;-56
2024/01/12 01:39:36;;;;;;;17.80;11.40;;;0.80;72.00;;;;;;5012185;28;20551;-56
2024/01/12 01:42:03;;;;;;;13.53;11.20;;;0.80;73.80;;;;;;5008816;28;20495;-56
2024/01/12 01:44:30;;;;;;;19.37;11.93;;;0.80;75.10;;;;;;5012492;28;20561;-57
2024/01/12 01:46:59;;;;;;;16.67;12.23;;;0.80;75.30;;;;;;5014169;28;20486;-57
2024/01/12 01:49:26;;;;;;;14.70;10.40;;;0.80;73.90;;;;;;5011121;28;20569;-56
2024/01/12 01:51:53;;;;;;;14.47;11.80;;;0.80;74.90;;;;;;5004357;28;20479;-56
2024/01/12 01:54:21;;;;;;;12.13;10.90;;;0.80;20.20;;;;;;5008911;28;20946;-56
2024/01/12 01:56:48;;;;;;;17.33;11.43;;;0.80;73.30;;;;;;5013803;28;20513;-56
2024/01/12 01:59:16;;;;;;;12.13;10.87;;;0.70;74.30;;;;;;5005998;28;20499;-56
2024/01/12 02:01:42;;;;;;;16.27;10.73;;;0.80;81.80;;;;;;5008595;28;20926;-57
2024/01/12 02:04:10;;;;;;;13.50;11.97;;;0.80;79.60;;;;;;5014293;28;21013;-56
2024/01/12 02:06:37;;;;;;;15.33;11.23;;;0.70;78.40;;;;;;5012608;28;20490;-57
2024/01/12 02:09:04;;;;;;;16.83;11.80;;;0.70;82.00;;;;;;5013620;28;20447;-56
2024/01/12 02:11:32;;;;;;;16.30;12.30;;;0.70;74.70;;;;;;5007150;28;20463;-56
2024/01/12 02:13:59;;;;;;;16.30;11.23;;;0.70;84.70;;;;;;5004947;28;20836;-56
2024/01/12 02:16:26;;;;;;;23.70;12.40;;;0.70;86.90;;;;;;5009081;28;20464;-56
2024/01/12 02:18:52;;;;;;;12.90;11.00;;;0.80;90.70;;;;;;5006534;28;20488;-56
2024/01/12 02:21:20;;;;;;;14.67;11.63;;;0.80;91.20;;;;;;5011042;28;20950;-56
2024/01/12 02:23:47;;;;;;;15.37;11.50;;;0.80;92.10;;;;;;5007965;28;20958;-56
2024/01/12 02:26:13;;;;;;;15.20;12.00;;;0.80;92.50;;;;;;5010358;28;20496;-56
2024/01/12 02:28:40;;;;;;;19.20;12.37;;;0.80;90.30;;;;;;5009268;28;20603;-56
2024/01/12 02:31:07;;;;;;;19.13;13.13;;;0.80;89.90;;;;;;5001856;28;20484;-57
2024/01/12 02:33:33;;;;;;;23.53;12.20;;;0.70;88.90;;;;;;5010038;28;20522;-54
2024/01/12 02:36:00;;;;;;;16.70;11.70;;;0.70;87.00;;;;;;5005124;28;20487;-53
2024/01/12 02:38:29;;;;;;;13.10;11.10;;;0.70;85.20;;;;;;5006611;28;20499;-53
2024/01/12 02:40:55;;;;;;;14.30;11.47;;;0.80;84.40;;;;;;5005663;28;20508;-54
2024/01/12 02:43:22;;;;;;;20.43;12.67;;;0.80;86.20;;;;;;5010513;28;20618;-54
2024/01/12 02:45:48;;;;;;;15.30;12.07;;;0.80;80.30;;;;;;5007316;28;20520;-53
2024/01/12 02:48:15;;;;;;;16.87;12.00;;;0.70;84.80;;;;;;5008508;28;20467;-54
2024/01/12 02:50:41;;;;;;;12.83;11.20;;;0.70;82.20;;;;;;5008485;28;20526;-54
2024/01/12 02:53:08;;;;;;;15.47;12.77;;;0.80;83.50;;;;;;5007553;28;20471;-55
2024/01/12 02:55:36;;;;;;;12.30;11.00;;;0.70;87.20;;;;;;5011126;28;20463;-54
2024/01/12 02:58:03;;;;;;;12.63;11.30;;;0.80;85.60;;;;;;5003272;28;20565;-54
2024/01/12 03:00:30;;;;;;;19.17;14.43;;;0.70;85.20;;;;;;5003798;28;20508;-53
2024/01/12 03:02:57;;;;;;;13.50;12.10;;;0.70;76.50;;;;;;5009401;28;20562;-54
2024/01/12 03:05:23;;;;;;;12.83;11.40;;;0.70;81.50;;;;;;5009314;28;20981;-54
2024/01/12 03:07:50;;;;;;;13.03;11.63;;;0.70;78.70;;;;;;5006769;28;20974;-54
2024/01/12 03:10:17;;;;;;;13.53;11.33;;;0.70;85.10;;;;;;5009086;28;20488;-53
2024/01/12 03:12:45;;;;;;;14.37;12.17;;;0.70;90.90;;;;;;5005876;28;20542;-54
2024/01/12 03:15:11;;;;;;;12.40;11.10;;;0.70;94.10;;;;;;5008140;28;20956;-53
2024/01/12 03:17:38;;;;;;;12.43;11.20;;;0.70;89.90;;;;;;5008546;28;20499;-53
2024/01/12 03:20:06;;;;;;;13.63;11.93;;;0.70;92.90;;;;;;5011837;28;20454;-53
2024/01/12 03:22:33;;;;;;;13.90;12.20;;;0.70;94.40;;;;;;5003763;28;20480;-54
2024/01/12 03:24:59;;;;;;;14.13;12.60;;;0.70;96.20;;;;;;5012408;28;20515;-54
2024/01/12 03:27:26;;;;;;;16.00;12.60;;;0.70;99.90;;;;;;5011652;28;20483;-54
2024/01/12 03:29:54;;;;;;;16.23;12.50;;;0.70;96.30;;;;;;5011150;28;20471;-53
2024/01/12 03:32:21;;;;;;;13.17;11.60;;;0.70;92.10;;;;;;5005365;28;20545;-54
2024/01/12 03:34:47;;;;;;;13.33;11.70;;;0.70;99.70;;;;;;5009264;28;20513;-55
2024/01/12 03:37:14;;;;;;;12.70;11.40;;;0.60;91.00;;;;;;5001256;28;20866;-53
2024/01/12 03:39:40;;;;;;;14.30;11.70;;;0.70;95.60;;;;;;5002840;28;20441;-54
2024/01/12 03:42:08;;;;;;;17.10;11.63;;;0.70;93.30;;;;;;5011986;28;20468;-53
2024/01/12 03:44:34;;;;;;;16.43;12.80;;;0.70;92.30;;;;;;5006158;28;20840;-54
2024/01/12 03:47:02;;;;;;;17.70;12.97;;;0.70;98.10;;;;;;5012354;28;20566;-53
2024/01/12 03:49:29;;;;;;;14.23;12.13;;;0.70;99.30;;;;;;5009719;28;20934;-53
2024/01/12 03:51:57;;;;;;;15.77;12.43;;;0.70;99.70;;;;;;5010604;28;20511;-53
2024/01/12 03:54:25;;;;;;;16.60;12.17;;;0.70;94.90;;;;;;5007651;28;20943;-54
2024/01/12 03:56:51;;;;;;;17.57;12.30;;;0.60;88.60;;;;;;5005433;28;21011;-54
2024/01/12 03:59:18;;;;;;;12.63;10.33;;;0.70;90.70;;;;;;5010947;28;20514;-54
2024/01/12 04:01:44;;;;;;;13.33;11.07;;;0.60;92.50;;;;;;5008235;28;20489;-54
2024/01/12 04:04:13;;;;;;;13.70;10.67;;;0.60;87.70;;;;;;5010004;28;21075;-54
2024/01/12 04:06:40;;;;;;;12.07;10.47;;;0.60;89.00;;;;;;5011334;28;20463;-54
2024/01/12 04:09:07;;;;;;;10.47;9.47;;;0.50;78.60;;;;;;5010146;28;20533;-54
2024/01/12 04:11:34;;;;;;;11.60;10.00;;;0.50;84.20;;;;;;5007723;28;20526;-54
2024/01/12 04:14:00;;;;;;;13.90;11.70;;;0.60;89.60;;;;;;5008122;28;20456;-54
2024/01/12 04:16:27;;;;;;;14.17;11.50;;;0.50;89.50;;;;;;5009578;28;20483;-53
2024/01/12 04:18:53;;;;;;;13.77;11.27;;;0.60;96.40;;;;;;5010951;28;20487;-54
2024/01/12 04:21:21;;;;;;;14.70;12.10;;;0.60;92.50;;;;;;5009587;28;20456;-53
2024/01/12 04:23:48;;;;;;;14.23;11.93;;;0.60;92.20;;;;;;5011079;28;20523;-54
2024/01/12 04:26:15;;;;;;;17.73;11.77;;;0.60;97.50;;;;;;5008711;28;20518;-55
2024/01/12 04:28:42;;;;;;;16.87;12.50;;;0.60;96.60;;;;;;5004525;28;20552;-54
2024/01/12 04:31:09;;;;;;;13.63;11.03;;;0.60;96.70;;;;;;5010879;28;20471;-54
2024/01/12 04:33:35;;;;;;;16.87;12.17;;;0.60;93.40;;;;;;5007009;28;20943;-54
2024/01/12 04:36:02;;;;;;;14.73;12.20;;;0.60;89.10;;;;;;5011600;28;20444;-54
2024/01/12 04:38:30;;;;;;;17.13;12.13;;;0.60;88.00;;;;;;5007317;28;20823;-53
2024/01/12 04:40:57;;;;;;;15.50;12.50;;;0.60;91.00;;;;;;5009613;28;20870;-53
2024/01/12 04:43:23;;;;;;;16.77;12.57;;;0.60;88.40;;;;;;5009481;28;20522;-53
2024/01/12 04:45:50;;;;;;;13.97;12.20;;;0.60;79.50;;;;;;5009592;28;20514;-53
2024/01/12 04:48:16;;;;;;;16.47;12.23;;;0.60;75.40;;;;;;5009069;28;20467;-54
2024/01/12 04:50:43;;;;;;;15.83;12.60;;;0.60;79.70;;;;;;5010233;28;20498;-53
2024/01/12 04:53:10;;;;;;;16.57;13.63;;;0.60;82.40;;;;;;5009145;28;20484;-54
2024/01/12 04:55:37;;;;;;;17.20;13.73;;;0.60;83.40;;;;;;5009054;28;20930;-54
2024/01/12 04:58:04;;;;;;;15.97;13.40;;;0.60;84.90;;;;;;5006621;28;20455;-54
2024/01/12 05:00:31;;;;;;;16.87;14.07;;;0.70;82.90;;;;;;5007306;28;20456;-53
2024/01/12 05:02:57;;;;;;;16.23;12.30;;;0.60;76.90;;;;;;5008578;28;21063;-53
2024/01/12 05:05:24;;;;;;;20.37;13.43;;;0.60;21.40;;;;;;5009920;28;20972;-53
2024/01/12 05:07:51;;;;;;;13.53;11.43;;;0.60;75.00;;;;;;5009874;28;20957;-54
2024/01/12 05:10:17;;;;;;;18.93;12.87;;;0.60;20.90;;;;;;5009773;28;20862;-53
2024/01/12 05:12:45;;;;;;;16.80;12.70;;;0.50;78.00;;;;;;5009801;28;20487;-54
2024/01/12 05:15:12;;;;;;;16.80;12.73;;;0.50;21.90;;;;;;5012804;28;20463;-54
2024/01/12 05:17:38;;;;;;;15.00;11.93;;;0.50;22.30;;;;;;5007704;28;20807;-54
2024/01/12 05:20:06;;;;;;;16.60;12.20;;;0.50;21.60;;;;;;5010878;28;20452;-53
2024/01/12 05:22:35;;;;;;;14.33;12.37;;;0.50;23.10;;;;;;5013678;28;20564;-54
2024/01/12 05:25:02;;;;;;;18.90;12.00;;;0.50;23.70;;;;;;5010842;28;20475;-54
2024/01/12 05:27:28;;;;;;;13.57;11.63;;;0.40;27.30;;;;;;5008634;28;20451;-55
2024/01/12 05:29:57;;;;;;;18.73;13.17;;;0.40;25.10;;;;;;5007833;28;20928;-53
2024/01/12 05:32:23;;;;;;;16.30;12.30;;;0.40;23.70;;;;;;5008802;28;20570;-54
2024/01/12 05:34:50;;;;;;;19.57;15.97;;;0.40;24.10;;;;;;5007592;28;20513;-54
2024/01/12 05:37:17;;;;;;;21.27;17.10;;;0.40;24.80;;;;;;5008777;28;20529;-54
2024/01/12 05:39:43;;;;;;;17.90;14.20;;;0.40;24.20;;;;;;5010392;28;20507;-53
2024/01/12 05:42:10;;;;;;;15.20;12.80;;;0.50;23.90;;;;;;5008337;28;20566;-53
2024/01/12 05:44:36;;;;;;;22.67;17.50;;;0.40;28.30;;;;;;5002829;28;20935;-54
2024/01/12 05:47:05;;;;;;;20.40;15.10;;;0.30;27.10;;;;;;5007133;28;20491;-53
2024/01/12 05:49:31;;;;;;;20.60;15.10;;;0.40;25.80;;;;;;5009195;28;20908;-53
2024/01/12 05:51:58;;;;;;;18.73;13.33;;;0.30;26.40;;;;;;5009559;28;20507;-53
2024/01/12 05:54:25;;;;;;;19.40;14.20;;;0.30;26.20;;;;;;5007955;28;20542;-54
2024/01/12 05:56:51;;;;;;;18.27;14.90;;;0.20;28.00;;;;;;5009330;28;20841;-53
2024/01/12 05:59:18;;;;;;;16.40;12.70;;;0.20;27.30;;;;;;5008309;28;20471;-53
2024/01/12 06:01:44;;;;;;;15.27;12.27;;;0.20;27.90;;;;;;5006425;28;20541;-54
2024/01/12 06:04:12;;;;;;;16.20;12.17;;;0.20;28.30;;;;;;5010525;28;20464;-53
2024/01/12 06:06:41;;;;;;;12.73;9.80;;;0.10;31.20;;;;;;5007715;28;20520;-54
2024/01/12 06:09:08;;;;;;;12.77;11.13;;;0.10;30.70;;;;;;5006325;28;20491;-53
2024/01/12 06:11:35;;;;;;;11.30;9.77;;;0.10;31.50;;;;;;5004530;28;20914;-54
2024/01/12 06:14:02;;;;;;;13.33;11.07;;;0.00;32.60;;;;;;5010264;28;20463;-51
2024/01/12 06:16:29;;;;;;;11.90;10.20;;;-0.10;34.80;;;;;;5004222;28;20552;-52
2024/01/12 06:18:55;;;;;;;37.80;27.63;;;-0.10;34.80;;;;;;5008587;28;20456;-53
2024/01/12 06:21:23;;;;;;;14.10;10.57;;;-0.20;35.90;;;;;;5009264;28;20456;-53
2024/01/12 06:23:50;;;;;;;9.97;8.90;;;-0.20;37.80;;;;;;5008812;28;20468;-53
2024/01/12 06:26:16;;;;;;;22.63;17.33;;;-0.30;35.60;;;;;;5006058;28;20511;-54
2024/01/12 06:28:43;;;;;;;17.40;13.13;;;-0.30;36.40;;;;;;5002367;28;21024;-53
2024/01/12 06:31:10;;;;;;;17.93;11.87;;;-0.20;31.60;;;;;;5010190;28;20466;-54
2024/01/12 06:33:36;;;;;;;23.63;11.93;;;-0.20;30.30;;;;;;5006084;28;20577;-53
2024/01/12 06:36:03;;;;;;;21.80;13.13;;;-0.20;29.40;;;;;;5004803;28;20829;-54
2024/01/12 06:38:31;;;;;;;29.50;21.60;;;-0.10;29.20;;;;;;5003853;28;20944;-54
2024/01/12 06:40:57;;;;;;;49.57;37.87;;;-0.10;28.20;;;;;;5009034;28;20941;-54
2024/01/12 06:43:24;;;;;;;13.07;11.27;;;-0.10;28.00;;;;;;5004668;28;21039;-54
2024/01/12 06:45:50;;;;;;;14.07;10.60;;;-0.20;30.40;;;;;;5004116;28;20875;-53
2024/01/12 06:48:17;;;;;;;13.40;9.97;;;-0.10;28.30;;;;;;5005476;28;20533;-54
2024/01/12 06:50:43;;;;;;;13.50;10.07;;;-0.20;29.90;;;;;;5002641;28;20557;-54
2024/01/12 06:53:10;;;;;;;9.57;8.57;;;-0.20;29.00;;;;;;5010269;28;20511;-54
2024/01/12 06:55:38;;;;;;;13.20;11.03;;;-0.20;27.60;;;;;;5007438;28;20491;-54
2024/01/12 06:58:05;;;;;;;12.73;8.27;;;-0.20;29.00;;;;;;5005132;28;20941;-54
2024/01/12 07:00:31;;;;;;;17.17;8.43;;;-0.20;30.20;;;;;;4996935;28;20534;-54
2024/01/12 07:02:58;;;;;;;10.70;8.97;;;-0.20;31.80;;;;;;5003848;28;20608;-54
2024/01/12 07:05:25;;;;;;;16.93;9.27;;;-0.20;29.70;;;;;;5009553;28;20865;-54
2024/01/12 07:07:51;;;;;;;28.17;8.80;;;-0.20;30.80;;;;;;5007743;28;20896;-54
2024/01/12 07:10:18;;;;;;;10.50;9.00;;;-0.30;33.80;;;;;;5005816;28;20521;-54
2024/01/12 07:12:47;;;;;;;15.87;9.77;;;-0.20;28.00;;;;;;5003598;28;20488;-54
2024/01/12 07:15:14;;;;;;;14.13;10.87;;;-0.20;29.30;;;;;;5011449;28;20451;-54
2024/01/12 07:17:41;;;;;;;24.17;10.43;;;-0.10;27.70;;;;;;5012535;28;20448;-53
2024/01/12 07:20:10;;;;;;;19.43;10.50;;;-0.10;27.70;;;;;;5009382;28;20440;-54
2024/01/12 07:22:36;;;;;;;12.37;10.70;;;-0.10;27.40;;;;;;5012504;28;20479;-54
2024/01/12 07:25:04;;;;;;;12.10;10.80;;;-0.10;28.20;;;;;;5007352;28;20481;-54
2024/01/12 07:27:30;;;;;;;15.07;10.67;;;-0.10;26.60;;;;;;5007614;28;20456;-54
2024/01/12 07:29:58;;;;;;;15.73;10.80;;;-0.10;27.10;;;;;;5004741;28;20517;-54
2024/01/12 07:32:25;;;;;;;36.53;10.17;;;-0.10;27.40;;;;;;5005409;28;20511;-54
2024/01/12 07:34:51;;;;;;;11.97;10.77;;;-0.10;30.00;;;;;;5006997;28;20526;-54
2024/01/12 07:37:18;;;;;;;12.40;10.57;;;-0.10;28.20;;;;;;5008095;28;20496;-54
2024/01/12 07:39:44;;;;;;;14.27;10.53;;;-0.10;27.30;;;;;;5008917;28;20468;-54
2024/01/12 07:42:11;;;;;;;15.17;11.60;;;-0.10;31.30;;;;;;5004689;28;20476;-54
2024/01/12 07:44:37;;;;;;;21.07;10.57;;;0.00;26.90;;;;;;5005521;28;20543;-54
2024/01/12 07:47:06;;;;;;;11.87;10.63;;;0.00;29.70;;;;;;5005578;28;20502;-53
2024/01/12 07:49:33;;;;;;;13.93;10.93;;;0.00;27.90;;;;;;5009982;28;20525;-54
2024/01/12 07:51:59;;;;;;;13.70;9.97;;;0.00;27.70;;;;;;5000924;28;20508;-53
2024/01/12 07:54:26;;;;;;;24.03;10.63;;;0.00;27.50;;;;;;5003696;28;20460;-54
2024/01/12 07:56:52;;;;;;;13.50;11.33;;;0.00;29.00;;;;;;5002794;28;20519;-53
2024/01/12 07:59:19;;;;;;;23.13;10.97;;;0.00;28.10;;;;;;5007865;28;20499;-54
2024/01/12 08:01:46;;;;;;;15.07;10.93;;;0.10;28.50;;;;;;5006334;28;20465;-54
2024/01/12 08:04:14;;;;;;;13.70;10.50;;;0.10;27.70;;;;;;5008040;28;20488;-54
2024/01/12 08:06:40;;;;;;;13.63;10.10;;;0.10;27.80;;;;;;5009599;28;20514;-54
2024/01/12 08:09:07;;;;;;;13.57;10.70;;;0.10;28.50;;;;;;5008037;28;20569;-54
2024/01/12 08:11:34;;;;;;;17.27;12.60;;;0.10;30.40;;;;;;5007586;28;20518;-54
2024/01/12 08:14:00;;;;;;;14.43;10.30;;;0.10;32.30;;;;;;5007918;28;20499;-53
2024/01/12 08:16:27;;;;;;;12.27;10.17;;;0.20;29.40;;;;;;5005070;28;21831;-53
2024/01/12 08:18:54;;;;;;;22.23;11.20;;;0.20;29.00;;;;;;5004486;28;20464;-53
2024/01/12 08:21:22;;;;;;;14.40;11.23;;;0.20;29.90;;;;;;5006204;28;20518;-54
2024/01/12 08:23:48;;;;;;;16.27;11.97;;;0.20;30.10;;;;;;5005264;28;20853;-54
2024/01/12 08:26:15;;;;;;;15.37;11.13;;;0.30;29.70;;;;;;5004803;28;20479;-54
2024/01/12 08:28:41;;;;;;;18.23;11.97;;;0.30;31.10;;;;;;5006349;28;20496;-54
2024/01/12 08:31:08;;;;;;;16.20;11.97;;;0.30;32.10;;;;;;5007632;28;20556;-54
2024/01/12 08:33:36;;;;;;;17.53;12.93;;;0.30;33.10;;;;;;5002623;28;21013;-57
2024/01/12 08:36:04;;;;;;;16.33;12.27;;;0.30;32.90;;;;;;5002045;28;20459;-58
2024/01/12 08:38:31;;;;;;;15.63;12.50;;;0.40;31.90;;;;;;5008134;28;20455;-56
2024/01/12 08:40:58;;;;;;;18.77;12.47;;;0.30;35.00;;;;;;5011655;28;20574;-56
2024/01/12 08:43:25;;;;;;;15.63;12.87;;;0.40;34.50;;;;;;5007477;28;20484;-58
2024/01/12 08:45:52;;;;;;;18.00;12.40;;;0.40;34.60;;;;;;5003470;28;20550;-56
2024/01/12 08:48:19;;;;;;;19.20;13.37;;;0.50;35.30;;;;;;5006958;28;20499;-56
2024/01/12 08:50:45;;;;;;;19.80;12.97;;;0.50;35.50;;;;;;5000644;28;20594;-56
2024/01/12 08:53:12;;;;;;;22.40;14.80;;;0.50;37.50;;;;;;5005423;28;20484;-56
2024/01/12 08:55:40;;;;;;;21.73;13.20;;;0.50;37.00;;;;;;5003516;28;20488;-57
2024/01/12 08:58:06;;;;;;;24.23;13.57;;;0.50;39.20;;;;;;5001884;28;20494;-56
2024/01/12 09:00:33;;;;;;;20.67;13.50;;;0.60;37.30;;;;;;5007791;28;20476;-56
2024/01/12 09:02:59;;;;;;;18.13;12.30;;;0.60;38.20;;;;;;5006029;28;20537;-56
2024/01/12 09:05:26;;;;;;;21.77;13.17;;;0.60;40.00;;;;;;5009036;28;21156;-56
2024/01/12 09:07:52;;;;;;;18.47;11.87;;;0.60;39.10;;;;;;5007556;28;20538;-56
2024/01/12 09:10:19;;;;;;;14.53;10.70;;;0.60;39.30;;;;;;5009172;28;20491;-57
2024/01/12 09:12:47;;;;;;;14.03;10.73;;;0.50;42.70;;;;;;5005229;28;21082;-56
2024/01/12 09:15:14;;;;;;;16.93;11.97;;;0.60;37.90;;;;;;5007973;28;20460;-57
2024/01/12 09:17:41;;;;;;;16.53;10.60;;;0.50;44.10;;;;;;5007597;28;20459;-57
2024/01/12 09:20:09;;;;;;;14.77;10.80;;;0.60;38.90;;;;;;5005974;28;20466;-56
2024/01/12 09:22:35;;;;;;;14.97;10.17;;;0.60;36.70;;;;;;5000437;28;20491;-56
2024/01/12 09:25:02;;;;;;;12.27;10.17;;;0.60;36.80;;;;;;5006197;28;20459;-57
2024/01/12 09:27:30;;;;;;;18.97;12.57;;;0.60;37.00;;;;;;5009756;28;20463;-56
2024/01/12 09:29:58;;;;;;;15.40;11.17;;;0.60;37.10;;;;;;5004044;28;20460;-56
2024/01/12 09:32:24;;;;;;;14.70;11.73;;;0.60;39.80;;;;;;5003251;28;20487;-56
2024/01/12 09:34:51;;;;;;;9.23;7.50;;;0.60;39.80;;;;;;5006041;28;20494;-57
2024/01/12 09:37:18;;;;;;;11.23;8.33;;;0.50;47.10;;;;;;5007233;28;20463;-58
2024/01/12 09:39:44;;;;;;;7.17;6.47;;;0.60;41.20;;;;;;5007767;28;20497;-56
2024/01/12 09:42:15;;;;;;;189.57;106.57;;;0.60;46.70;;;;;;5002915;28;20516;-57
2024/01/12 09:44:45;;;;;;;16.63;11.07;;;0.60;50.10;;;;;;5009799;28;20956;-56
2024/01/12 09:47:13;;;;;;;12.60;9.53;;;0.50;49.00;;;;;;5003668;28;20559;-55
2024/01/12 09:49:42;;;;;;;6.40;5.80;;;0.60;51.50;;;;;;5006560;28;20971;-57
2024/01/12 09:52:08;;;;;;;8.70;7.70;;;0.50;50.20;;;;;;4998970;28;20508;-56
2024/01/12 09:54:35;;;;;;;6.10;5.50;;;0.50;53.30;;;;;;5005813;28;20464;-56
2024/01/12 09:57:03;;;;;;;5.53;4.83;;;0.50;53.90;;;;;;5008591;28;20481;-56
2024/01/12 09:59:30;;;;;;;12.43;8.47;;;0.50;53.60;;;;;;5007748;28;20547;-56
2024/01/12 10:01:58;;;;;;;6.77;5.70;;;0.50;54.80;;;;;;5007209;28;20483;-56
2024/01/12 10:04:26;;;;;;;12.03;10.70;;;0.30;62.90;;;;;;5009402;28;20455;-56
2024/01/12 10:06:53;;;;;;;7.60;6.80;;;0.30;56.50;;;;;;5010418;28;20499;-56
2024/01/12 10:09:21;;;;;;;23.00;19.33;;;0.40;52.90;;;;;;5010877;28;21039;-57
2024/01/12 10:11:47;;;;;;;10.47;8.50;;;0.40;51.30;;;;;;5004647;28;20448;-57
2024/01/12 10:14:21;;;;;;;177.53;102.40;;;0.40;50.30;;;;;;5010746;28;20459;-56
2024/01/12 10:16:53;;;;;;;7.87;7.07;;;0.40;53.50;;;;;;5011648;28;20464;-57
2024/01/12 10:19:20;;;;;;;39.07;21.13;;;0.30;56.00;;;;;;5009772;28;20467;-56
2024/01/12 10:21:48;;;;;;;10.20;7.80;;;0.30;56.20;;;;;;5011780;28;20488;-56
2024/01/12 10:24:17;;;;;;;11.00;8.77;;;0.20;55.10;;;;;;5009146;28;20460;-56
2024/01/12 10:26:44;;;;;;;10.47;8.23;;;0.30;49.40;;;;;;5010785;28;20482;-57
2024/01/12 10:29:11;;;;;;;8.20;7.40;;;0.40;49.40;;;;;;5009856;28;20463;-56
2024/01/12 10:31:41;;;;;;;9.00;7.77;;;0.30;51.40;;;;;;5009022;28;20495;-58
2024/01/12 10:34:11;;;;;;;11.33;9.23;;;0.30;52.40;;;;;;5008821;28;21002;-57
2024/01/12 10:36:38;;;;;;;11.97;10.23;;;0.20;49.00;;;;;;5007368;28;20452;-56
2024/01/12 10:39:08;;;;;;;11.00;8.73;;;0.20;48.70;;;;;;5010286;28;20499;-57
2024/01/12 10:41:35;;;;;;;12.40;9.07;;;0.20;48.20;;;;;;5006045;28;20459;-56
2024/01/12 10:44:05;;;;;;;13.37;10.40;;;0.20;48.30;;;;;;5009893;28;20496;-56
2024/01/12 10:46:40;;;;;;;11.27;8.70;;;0.20;47.00;;;;;;5012705;28;20541;-56
2024/01/12 10:49:16;;;;;;;11.30;9.53;;;0.20;48.00;;;;;;5009058;28;20549;-56
2024/01/12 10:51:54;;;;;;;14.60;9.43;;;0.20;44.70;;;;;;5004470;28;20517;-56
2024/01/12 10:54:27;;;;;;;14.53;10.23;;;0.20;41.50;;;;;;5010268;28;20491;-56
2024/01/12 10:56:55;;;;;;;10.93;8.97;;;0.20;41.30;;;;;;5008686;28;20464;-57
2024/01/12 10:59:22;;;;;;;11.60;9.03;;;0.30;38.70;;;;;;5002253;28;20494;-57
2024/01/12 11:01:50;;;;;;;16.97;11.00;;;0.30;38.70;;;;;;5007169;28;20463;-56
2024/01/12 11:04:17;;;;;;;12.27;10.03;;;0.30;39.70;;;;;;5011094;28;20471;-57
2024/01/12 11:06:45;;;;;;;22.33;10.17;;;0.20;38.00;;;;;;5006712;28;20521;-56
2024/01/12 11:09:15;;;;;;;9.93;8.80;;;0.20;41.00;;;;;;5007612;28;20475;-56
2024/01/12 11:11:47;;;;;;;12.90;8.63;;;0.20;41.30;;;;;;5007526;28;20467;-57
2024/01/12 11:14:16;;;;;;;9.00;7.30;;;0.20;39.20;;;;;;5009780;28;20471;-57
2024/01/12 11:16:43;;;;;;;10.17;8.87;;;0.10;44.40;;;;;;5009565;28;20456;-56
2024/01/12 11:19:13;;;;;;;7.53;6.70;;;0.20;41.30;;;;;;5007193;28;20570;-57
2024/01/12 11:21:40;;;;;;;9.10;7.20;;;0.20;42.10;;;;;;5007703;28;20829;-56
2024/01/12 11:24:07;;;;;;;9.23;7.43;;;0.10;43.70;;;;;;5007405;28;20459;-56
2024/01/12 11:26:34;;;;;;;7.20;6.60;;;0.20;42.30;;;;;;5011276;28;20515;-56
2024/01/12 11:29:01;;;;;;;7.20;6.50;;;0.20;44.30;;;;;;5006936;28;20460;-56
2024/01/12 11:31:28;;;;;;;8.13;6.77;;;0.20;42.80;;;;;;5008271;28;20471;-57
2024/01/12 11:33:59;;;;;;;8.03;7.23;;;0.20;47.80;;;;;;5007510;28;20504;-57
2024/01/12 11:36:29;;;;;;;7.53;6.60;;;0.20;46.00;;;;;;5004366;28;21049;-57
2024/01/12 11:38:59;;;;;;;7.60;6.87;;;0.30;47.60;;;;;;5003731;28;20459;-56
2024/01/12 11:41:28;;;;;;;7.97;6.63;;;0.20;49.50;;;;;;5007447;28;20492;-56
2024/01/12 11:43:55;;;;;;;6.90;6.20;;;0.30;45.40;;;;;;5009457;28;20487;-57
2024/01/12 11:46:24;;;;;;;8.63;6.80;;;0.30;44.20;;;;;;5005022;28;20519;-56
2024/01/12 11:48:51;;;;;;;7.93;6.17;;;0.30;48.80;;;;;;5003113;28;20911;-56
2024/01/12 11:51:21;;;;;;;12.10;6.27;;;0.20;48.10;;;;;;5008319;28;20517;-57
2024/01/12 11:53:50;;;;;;;8.70;7.77;;;0.20;48.10;;;;;;5010068;28;20494;-56
2024/01/12 11:56:17;;;;;;;8.37;7.50;;;0.20;46.20;;;;;;5003979;28;20494;-57
2024/01/12 11:58:43;;;;;;;8.00;7.20;;;0.30;46.30;;;;;;5007217;28;20477;-57
2024/01/12 12:01:10;;;;;;;7.97;7.17;;;0.20;47.00;;;;;;5009970;28;20865;-58
2024/01/12 12:03:38;;;;;;;11.10;7.20;;;0.20;45.80;;;;;;5011483;28;20894;-56
2024/01/12 12:06:06;;;;;;;10.60;8.10;;;0.20;48.00;;;;;;5008561;28;20867;-56
2024/01/12 12:08:34;;;;;;;8.50;7.60;;;0.20;45.70;;;;;;5003436;28;20821;-56
2024/01/12 12:11:00;;;;;;;12.60;8.00;;;0.10;50.50;;;;;;5008460;28;20511;-56
2024/01/12 12:13:27;;;;;;;11.10;8.13;;;0.10;49.40;;;;;;5007564;28;20517;-57
2024/01/12 12:15:55;;;;;;;9.37;7.27;;;0.20;45.50;;;;;;5011846;28;20486;-56
2024/01/12 12:18:21;;;;;;;12.30;8.87;;;0.20;46.10;;;;;;5011259;28;20502;-56
2024/01/12 12:20:49;;;;;;;11.20;7.90;;;0.20;43.20;;;;;;5008584;28;20444;-56
2024/01/12 12:23:16;;;;;;;12.77;9.37;;;0.20;42.70;;;;;;5002482;28;20468;-56
2024/01/12 12:25:44;;;;;;;11.33;8.80;;;0.20;42.40;;;;;;5000603;28;20990;-56
2024/01/12 12:28:11;;;;;;;16.40;9.83;;;0.20;44.60;;;;;;5003632;28;21001;-56
2024/01/12 12:30:40;;;;;;;13.10;9.70;;;0.20;42.60;;;;;;5002143;28;20541;-56
2024/01/12 12:33:09;;;;;;;14.17;9.83;;;0.20;41.50;;;;;;5007509;28;20490;-56
2024/01/12 12:35:35;;;;;;;17.00;9.10;;;0.10;41.70;;;;;;5008974;28;20514;-57
2024/01/12 12:38:04;;;;;;;15.77;10.90;;;0.20;39.70;;;;;;5012867;28;20456;-57
2024/01/12 12:40:31;;;;;;;14.50;10.50;;;0.10;37.70;;;;;;5011057;28;20945;-58